createdAt,value
2023-01-17T00:02:05.837Z,6.39
2023-01-17T00:04:52.212Z,6.38
2023-01-17T00:07:40.199Z,6.36
2023-01-17T00:10:12.412Z,6.34
2023-01-17T00:12:40.827Z,6.33
2023-01-17T00:15:11.116Z,6.33
2023-01-17T00:17:40.718Z,6.36
2023-01-17T00:20:31.804Z,6.34
2023-01-17T00:23:17.903Z,6.33
2023-01-17T00:26:04.597Z,6.31
2023-01-17T00:28:35.332Z,6.28
2023-01-17T00:31:03.833Z,6.27
2023-01-17T00:33:32.751Z,6.24
2023-01-17T00:36:01.295Z,6.28
2023-01-17T00:38:30.694Z,6.25
2023-01-17T00:41:03.195Z,6.25
2023-01-17T00:43:49.569Z,6.21
2023-01-17T00:46:35.993Z,6.20
2023-01-17T00:49:23.963Z,6.18
2023-01-17T00:52:10.214Z,6.14
2023-01-17T00:54:55.756Z,6.15
2023-01-17T00:57:41.890Z,6.12
2023-01-17T01:00:28.974Z,6.08
2023-01-17T01:03:14.626Z,6.05
2023-01-17T01:06:01.887Z,6.05
2023-01-17T01:08:48.733Z,6.02
2023-01-17T01:11:37.652Z,6.02
2023-01-17T01:14:29.149Z,6.01
2023-01-17T01:17:14.943Z,6.02
2023-01-17T01:20:00.575Z,5.99
2023-01-17T01:22:47.786Z,5.98
2023-01-17T01:25:33.791Z,5.97
2023-01-17T01:28:23.800Z,5.97
2023-01-17T01:31:09.668Z,5.96
2023-01-17T01:33:37.975Z,5.93
2023-01-17T01:36:09.571Z,5.95
2023-01-17T01:38:39.317Z,5.95
2023-01-17T01:41:08.172Z,5.96
2023-01-17T01:43:47.806Z,5.93
2023-01-17T01:46:22.096Z,5.88
2023-01-17T01:48:54.303Z,5.93
2023-01-17T01:51:28.976Z,5.92
2023-01-17T01:54:04.691Z,5.92
2023-01-17T01:56:33.743Z,5.91
2023-01-17T01:59:05.540Z,5.92
2023-01-17T02:01:33.987Z,5.92
2023-01-17T02:04:02.629Z,5.90
2023-01-17T02:06:35.391Z,5.85
2023-01-17T02:09:10.351Z,5.85
2023-01-17T02:11:40.391Z,5.86
2023-01-17T02:14:08.750Z,5.86
2023-01-17T02:16:59.630Z,5.86
2023-01-17T02:20:03.277Z,5.85
2023-01-17T02:23:44.275Z,5.84
2023-01-17T02:27:11.215Z,5.80
2023-01-17T02:30:25.684Z,5.77
2023-01-17T02:33:19.113Z,5.75
2023-01-17T02:36:05.214Z,5.73
2023-01-17T02:38:41.673Z,5.72
2023-01-17T02:41:16.109Z,5.70
2023-01-17T02:43:44.709Z,5.72
2023-01-17T02:46:14.318Z,5.72
2023-01-17T02:48:43.392Z,5.72
2023-01-17T02:51:36.748Z,5.70
2023-01-17T02:54:32.027Z,5.68
2023-01-17T02:57:19.503Z,5.67
2023-01-17T02:59:56.974Z,5.65
2023-01-17T03:02:34.316Z,5.63
2023-01-17T03:05:07.878Z,5.65
2023-01-17T03:07:37.914Z,5.65
2023-01-17T03:10:08.585Z,5.61
2023-01-17T03:12:39.737Z,5.62
2023-01-17T03:15:13.069Z,5.59
2023-01-17T03:17:48.759Z,5.59
2023-01-17T03:20:18.010Z,5.58
2023-01-17T03:22:46.297Z,5.58
2023-01-17T03:25:14.847Z,5.55
2023-01-17T03:27:43.477Z,5.56
2023-01-17T03:30:12.980Z,5.55
2023-01-17T03:32:42.642Z,5.55
2023-01-17T03:35:11.185Z,5.54
2023-01-17T03:37:39.475Z,5.53
2023-01-17T03:40:09.836Z,5.51
2023-01-17T03:42:38.104Z,5.49
2023-01-17T03:45:07.466Z,5.49
2023-01-17T03:47:37.074Z,5.47
2023-01-17T03:50:07.733Z,5.45
2023-01-17T03:52:36.128Z,5.42
2023-01-17T03:55:04.562Z,5.41
2023-01-17T03:57:32.810Z,5.39
2023-01-17T04:00:01.145Z,5.37
2023-01-17T04:02:29.459Z,5.37
2023-01-17T04:04:57.751Z,5.32
2023-01-17T04:07:27.357Z,5.32
2023-01-17T04:09:55.711Z,5.32
2023-01-17T04:12:24.195Z,5.29
2023-01-17T04:14:52.483Z,5.28
2023-01-17T04:17:21.808Z,5.24
2023-01-17T04:19:50.116Z,5.24
2023-01-17T04:22:18.415Z,5.24
2023-01-17T04:24:48.007Z,5.21
2023-01-17T04:27:16.330Z,5.20
2023-01-17T04:29:46.664Z,5.17
2023-01-17T04:32:15.117Z,5.15
2023-01-17T04:34:43.400Z,5.13
2023-01-17T04:37:11.653Z,5.12
2023-01-17T04:39:39.888Z,5.09
2023-01-17T04:42:09.575Z,5.08
2023-01-17T04:44:37.786Z,5.06
2023-01-17T04:47:06.039Z,5.01
2023-01-17T04:49:34.278Z,5.03
2023-01-17T04:52:02.530Z,5.03
2023-01-17T04:54:30.775Z,5.01
2023-01-17T04:56:59.005Z,4.97
2023-01-17T04:59:28.610Z,4.97
2023-01-17T05:01:56.942Z,4.96
2023-01-17T05:04:25.359Z,4.93
2023-01-17T05:06:53.739Z,4.90
2023-01-17T05:09:22.015Z,4.88
2023-01-17T05:11:50.281Z,4.86
2023-01-17T05:14:18.561Z,4.84
2023-01-17T05:16:48.192Z,4.81
2023-01-17T05:19:16.494Z,4.79
2023-01-17T05:21:44.719Z,4.78
2023-01-17T05:24:12.969Z,4.78
2023-01-17T05:26:43.133Z,4.77
2023-01-17T05:29:11.539Z,4.77
2023-01-17T05:31:40.019Z,4.75
2023-01-17T05:34:09.859Z,4.75
2023-01-17T05:36:38.094Z,4.74
2023-01-17T05:39:06.447Z,4.72
2023-01-17T05:41:34.691Z,4.72
2023-01-17T05:44:02.942Z,4.70
2023-01-17T05:46:31.265Z,4.68
2023-01-17T05:48:59.494Z,4.67
2023-01-17T05:51:29.443Z,4.64
2023-01-17T05:53:57.658Z,4.63
2023-01-17T05:56:25.988Z,4.60
2023-01-17T05:58:54.316Z,4.59
2023-01-17T06:01:22.823Z,4.57
2023-01-17T06:03:51.181Z,4.56
2023-01-17T06:06:19.561Z,4.54
2023-01-17T06:08:49.215Z,4.51
2023-01-17T06:11:18.520Z,4.52
2023-01-17T06:13:46.796Z,4.51
2023-01-17T06:16:15.096Z,4.51
2023-01-17T06:18:43.341Z,4.50
2023-01-17T06:21:11.565Z,4.51
2023-01-17T06:23:39.807Z,4.51
2023-01-17T06:26:09.458Z,4.50
2023-01-17T06:28:37.664Z,4.49
2023-01-17T06:31:09.745Z,4.49
2023-01-17T06:33:38.037Z,4.48
2023-01-17T06:36:07.249Z,4.46
2023-01-17T06:38:35.431Z,4.44
2023-01-17T06:41:06.027Z,4.42
2023-01-17T06:43:35.627Z,4.39
2023-01-17T06:46:03.890Z,4.37
2023-01-17T06:48:32.358Z,4.35
2023-01-17T06:51:00.628Z,4.30
2023-01-17T06:53:28.936Z,4.29
2023-01-17T06:55:58.157Z,4.24
2023-01-17T06:58:26.464Z,4.21
2023-01-17T07:00:56.123Z,4.16
2023-01-17T07:03:26.467Z,4.13
2023-01-17T07:05:55.128Z,4.08
2023-01-17T07:08:23.342Z,4.06
2023-01-17T07:10:51.705Z,4.03
2023-01-17T07:13:19.967Z,3.99
2023-01-17T07:15:48.366Z,3.96
2023-01-17T07:18:20.679Z,3.92
2023-01-17T07:20:49.150Z,3.90
2023-01-17T07:23:17.523Z,3.85
2023-01-17T07:25:45.875Z,3.82
2023-01-17T07:28:14.099Z,3.79
2023-01-17T07:30:42.350Z,3.74
2023-01-17T07:33:10.958Z,3.69
2023-01-17T07:35:40.654Z,3.66
2023-01-17T07:38:11.511Z,3.67
2023-01-17T07:40:42.432Z,3.62
2023-01-17T07:43:14.427Z,3.61
2023-01-17T07:45:43.971Z,3.59
2023-01-17T07:48:12.906Z,3.57
2023-01-17T07:50:42.597Z,3.56
2023-01-17T07:53:11.352Z,3.58
2023-01-17T07:55:39.606Z,3.58
2023-01-17T07:58:07.927Z,3.59
2023-01-17T08:00:36.204Z,3.61
2023-01-17T08:03:05.782Z,3.60
2023-01-17T08:05:34.050Z,3.61
2023-01-17T08:08:03.944Z,3.60
2023-01-17T08:10:32.249Z,3.60
2023-01-17T08:13:00.496Z,3.63
2023-01-17T08:15:28.901Z,3.65
2023-01-17T08:17:58.658Z,3.70
2023-01-17T08:20:28.119Z,3.79
2023-01-17T08:22:57.801Z,3.90
2023-01-17T08:25:28.144Z,4.01
2023-01-17T08:27:59.057Z,4.13
2023-01-17T08:30:28.083Z,4.23
2023-01-17T08:32:56.634Z,4.32
2023-01-17T08:35:25.236Z,4.44
2023-01-17T08:37:56.536Z,4.54
2023-01-17T08:40:26.213Z,4.62
2023-01-17T08:42:59.329Z,4.69
2023-01-17T08:45:28.848Z,4.77
2023-01-17T08:47:59.865Z,4.86
2023-01-17T08:50:28.536Z,4.97
2023-01-17T08:53:01.422Z,5.10
2023-01-17T08:55:31.162Z,5.25
2023-01-17T08:57:59.508Z,5.43
2023-01-17T09:00:30.010Z,5.60
2023-01-17T09:02:58.357Z,5.79
2023-01-17T09:05:27.029Z,5.89
2023-01-17T09:07:56.675Z,6.09
2023-01-17T09:10:25.126Z,6.24
2023-01-17T09:12:54.952Z,6.37
2023-01-17T09:15:23.233Z,6.52
2023-01-17T09:17:51.983Z,6.69
2023-01-17T09:20:20.540Z,6.84
2023-01-17T09:22:48.970Z,7.02
2023-01-17T09:25:17.419Z,7.17
2023-01-17T09:27:47.871Z,7.30
2023-01-17T09:30:18.809Z,7.28
2023-01-17T09:32:53.902Z,7.38
2023-01-17T09:35:22.293Z,7.48
2023-01-17T09:37:51.243Z,7.55
2023-01-17T09:40:24.172Z,7.63
2023-01-17T09:42:58.084Z,7.76
2023-01-17T09:45:32.227Z,7.87
2023-01-17T09:48:02.804Z,7.94
2023-01-17T09:50:34.989Z,8.01
2023-01-17T09:53:06.995Z,8.19
2023-01-17T09:55:42.958Z,8.26
2023-01-17T09:58:15.339Z,8.31
2023-01-17T10:00:58.226Z,8.42
2023-01-17T10:03:46.577Z,8.57
2023-01-17T10:06:37.599Z,8.78
2023-01-17T10:09:30.907Z,8.90
2023-01-17T10:12:15.192Z,9.14
2023-01-17T10:14:57.954Z,9.34
2023-01-17T10:17:40.078Z,9.53
2023-01-17T10:20:40.310Z,9.70
2023-01-17T10:23:34.307Z,9.87
2023-01-17T10:26:04.676Z,10.06
2023-01-17T10:28:38.076Z,10.17
2023-01-17T10:31:09.376Z,10.24
2023-01-17T10:33:45.072Z,10.33
2023-01-17T10:36:20.905Z,10.43
2023-01-17T10:38:51.893Z,10.54
2023-01-17T10:41:27.274Z,10.63
2023-01-17T10:44:08.000Z,10.70
2023-01-17T10:46:43.419Z,10.81
2023-01-17T10:49:18.670Z,10.88
2023-01-17T10:52:14.343Z,10.99
2023-01-17T10:55:04.039Z,11.08
2023-01-17T10:57:40.356Z,11.17
2023-01-17T11:00:43.904Z,11.22
2023-01-17T11:03:14.900Z,11.36
2023-01-17T11:05:45.173Z,11.43
2023-01-17T11:08:15.689Z,11.47
2023-01-17T11:10:46.488Z,11.51
2023-01-17T11:13:31.251Z,11.50
2023-01-17T11:16:05.798Z,11.56
2023-01-17T11:18:37.173Z,11.61
2023-01-17T11:21:18.551Z,11.64
2023-01-17T11:23:48.676Z,11.66
2023-01-17T11:26:27.396Z,11.62
2023-01-17T11:29:16.508Z,11.55
2023-01-17T11:31:44.780Z,11.53
2023-01-17T11:34:18.847Z,11.44
2023-01-17T11:36:49.398Z,11.41
2023-01-17T11:39:29.275Z,11.23
2023-01-17T11:41:58.068Z,11.15
2023-01-17T11:44:28.874Z,11.06
2023-01-17T11:47:19.158Z,10.93
2023-01-17T11:49:49.398Z,10.85
2023-01-17T11:52:25.240Z,10.74
2023-01-17T11:54:56.484Z,10.66
2023-01-17T11:57:29.964Z,10.57
2023-01-17T12:00:13.244Z,10.50
2023-01-17T12:03:13.906Z,10.44
2023-01-17T12:05:53.678Z,10.37
2023-01-17T12:08:40.411Z,10.33
2023-01-17T12:11:16.685Z,10.22
2023-01-17T12:14:01.265Z,10.16
2023-01-17T12:16:46.218Z,10.03
2023-01-17T12:19:33.233Z,9.99
2023-01-17T12:22:25.337Z,9.92
2023-01-17T12:25:15.681Z,9.86
2023-01-17T12:27:58.950Z,9.83
2023-01-17T12:30:50.584Z,9.79
2023-01-17T12:33:25.758Z,9.75
2023-01-17T12:35:58.590Z,9.72
2023-01-17T12:38:37.311Z,9.66
2023-01-17T12:41:13.556Z,9.63
2023-01-17T12:43:42.871Z,9.62
2023-01-17T12:46:20.944Z,9.57
2023-01-17T12:48:56.166Z,9.52
2023-01-17T12:51:29.531Z,9.48
2023-01-17T12:54:04.265Z,9.46
2023-01-17T12:56:41.525Z,9.42
2023-01-17T12:59:20.556Z,9.39
2023-01-17T13:01:57.666Z,9.38
2023-01-17T13:04:30.876Z,9.32
2023-01-17T13:07:10.218Z,9.27
2023-01-17T13:09:45.318Z,9.27
2023-01-17T13:12:19.033Z,9.21
2023-01-17T13:14:47.961Z,9.16
2023-01-17T13:17:33.084Z,9.15
2023-01-17T13:20:11.077Z,9.15
2023-01-17T13:22:41.116Z,9.12
2023-01-17T13:25:29.782Z,9.11
2023-01-17T13:28:15.811Z,9.09
2023-01-17T13:31:15.538Z,9.09
2023-01-17T13:34:12.350Z,9.00
2023-01-17T13:36:58.844Z,8.99
2023-01-17T13:40:07.836Z,8.93
2023-01-17T13:42:46.410Z,8.88
2023-01-17T13:45:22.953Z,8.86
2023-01-17T13:47:52.715Z,8.81
2023-01-17T13:50:50.625Z,8.78
2023-01-17T13:53:58.973Z,8.59
2023-01-17T13:56:37.315Z,8.65
2023-01-17T13:59:30.665Z,8.64
2023-01-17T14:02:00.360Z,8.63
2023-01-17T14:05:08.967Z,8.61
2023-01-17T14:07:45.197Z,8.60
2023-01-17T14:10:34.596Z,8.57
2023-01-17T14:13:05.240Z,8.60
2023-01-17T14:15:36.729Z,8.62
2023-01-17T14:18:08.244Z,8.61
2023-01-17T14:20:52.241Z,8.57
2023-01-17T14:23:38.721Z,8.58
2023-01-17T14:26:28.217Z,8.56
2023-01-17T14:28:59.384Z,8.52
2023-01-17T14:31:29.258Z,8.53
2023-01-17T14:34:13.818Z,8.48
2023-01-17T14:36:42.503Z,8.45
2023-01-17T14:39:23.182Z,8.43
2023-01-17T14:41:51.647Z,8.37
2023-01-17T14:44:20.894Z,8.37
2023-01-17T14:46:50.443Z,8.34
2023-01-17T14:49:26.957Z,8.29
2023-01-17T14:52:02.536Z,8.28
2023-01-17T14:54:31.222Z,8.27
2023-01-17T14:57:16.700Z,8.27
2023-01-17T14:59:46.387Z,8.26
2023-01-17T15:02:18.511Z,8.25
2023-01-17T15:04:55.879Z,8.22
2023-01-17T15:07:26.681Z,8.21
2023-01-17T15:09:54.970Z,8.20
2023-01-17T15:12:23.244Z,8.17
2023-01-17T15:14:51.795Z,8.17
2023-01-17T15:17:24.467Z,8.16
2023-01-17T15:19:58.991Z,8.14
2023-01-17T15:22:29.710Z,8.11
2023-01-17T15:24:59.327Z,8.10
2023-01-17T15:27:28.088Z,8.09
2023-01-17T15:30:01.851Z,8.08
2023-01-17T15:32:31.419Z,8.03
2023-01-17T15:35:02.955Z,8.03
2023-01-17T15:37:34.549Z,8.04
2023-01-17T15:40:06.871Z,8.01
2023-01-17T15:42:37.687Z,7.98
2023-01-17T15:45:10.458Z,7.96
2023-01-17T15:47:40.196Z,7.93
2023-01-17T15:50:36.447Z,7.88
2023-01-17T15:53:12.982Z,7.84
2023-01-17T15:55:41.705Z,7.79
2023-01-17T15:58:25.577Z,7.75
2023-01-17T16:00:54.066Z,7.72
2023-01-17T16:03:29.358Z,7.69
2023-01-17T16:06:02.964Z,7.65
2023-01-17T16:08:39.532Z,7.60
2023-01-17T16:11:09.601Z,7.56
2023-01-17T16:13:42.159Z,7.54
2023-01-17T16:16:12.986Z,7.49
2023-01-17T16:18:41.639Z,7.44
2023-01-17T16:21:23.855Z,7.40
2023-01-17T16:23:52.413Z,7.34
2023-01-17T16:26:21.062Z,7.30
2023-01-17T16:28:50.149Z,7.26
2023-01-17T16:31:19.167Z,7.23
2023-01-17T16:33:51.651Z,7.19
2023-01-17T16:36:22.973Z,7.16
2023-01-17T16:38:53.143Z,7.13
2023-01-17T16:41:22.064Z,7.11
2023-01-17T16:44:00.823Z,7.04
2023-01-17T16:46:30.074Z,7.01
2023-01-17T16:49:01.174Z,6.96
2023-01-17T16:51:30.834Z,6.91
2023-01-17T16:53:59.490Z,6.86
2023-01-17T16:56:28.209Z,6.81
2023-01-17T16:58:56.631Z,6.78
2023-01-17T17:01:25.438Z,6.72
2023-01-17T17:03:53.806Z,6.68
2023-01-17T17:06:22.441Z,6.65
2023-01-17T17:08:52.062Z,6.61
2023-01-17T17:11:23.104Z,6.60
2023-01-17T17:13:52.940Z,6.55
2023-01-17T17:16:23.310Z,6.51
2023-01-17T17:18:57.707Z,6.50
2023-01-17T17:21:27.099Z,6.49
2023-01-17T17:23:59.277Z,6.44
2023-01-17T17:26:30.957Z,6.42
2023-01-17T17:28:59.593Z,6.41
2023-01-17T17:31:28.201Z,6.39
2023-01-17T17:33:59.703Z,6.37
2023-01-17T17:36:40.389Z,6.35
2023-01-17T17:39:15.757Z,6.34
2023-01-17T17:41:46.012Z,6.33
2023-01-17T17:44:14.714Z,6.33
2023-01-17T17:46:43.202Z,6.34
2023-01-17T17:49:11.577Z,6.32
2023-01-17T17:51:41.476Z,6.31
2023-01-17T17:54:14.088Z,6.30
2023-01-17T17:56:46.452Z,6.30
2023-01-17T17:59:18.394Z,6.28
2023-01-17T18:01:49.601Z,6.27
2023-01-17T18:04:18.454Z,6.26
2023-01-17T18:06:46.817Z,6.23
2023-01-17T18:09:17.483Z,6.19
2023-01-17T18:11:46.604Z,6.19
2023-01-17T18:14:17.035Z,6.18
2023-01-17T18:16:47.099Z,6.18
2023-01-17T18:19:18.904Z,6.18
2023-01-17T18:21:48.669Z,6.17
2023-01-17T18:24:20.267Z,6.18
2023-01-17T18:26:51.000Z,6.20
2023-01-17T18:29:25.642Z,6.20
2023-01-17T18:31:55.205Z,6.22
2023-01-17T18:34:28.436Z,6.22
2023-01-17T18:36:57.880Z,6.21
2023-01-17T18:39:30.273Z,6.20
2023-01-17T18:41:59.084Z,6.23
2023-01-17T18:44:27.860Z,6.22
2023-01-17T18:46:58.607Z,6.22
2023-01-17T18:49:27.113Z,6.22
2023-01-17T18:51:55.406Z,6.23
2023-01-17T18:54:23.742Z,6.23
2023-01-17T18:56:55.498Z,6.22
2023-01-17T18:59:23.883Z,6.23
2023-01-17T19:01:52.688Z,6.22
2023-01-17T19:04:21.582Z,6.23
2023-01-17T19:06:50.350Z,6.23
2023-01-17T19:09:19.493Z,6.22
2023-01-17T19:11:47.783Z,6.21
2023-01-17T19:14:17.502Z,6.23
2023-01-17T19:16:45.770Z,6.23
2023-01-17T19:19:16.492Z,6.24
2023-01-17T19:21:45.266Z,6.23
2023-01-17T19:24:14.304Z,6.24
2023-01-17T19:26:43.290Z,6.24
2023-01-17T19:29:12.314Z,6.26
2023-01-17T19:31:43.716Z,6.26
2023-01-17T19:34:14.007Z,6.28
2023-01-17T19:36:42.669Z,6.30
2023-01-17T19:39:11.736Z,6.32
2023-01-17T19:41:44.037Z,6.30
2023-01-17T19:44:15.165Z,6.30
2023-01-17T19:46:46.134Z,6.28
2023-01-17T19:49:16.336Z,6.29
2023-01-17T19:51:44.545Z,6.29
2023-01-17T19:54:15.204Z,6.28
2023-01-17T19:56:43.658Z,6.28
2023-01-17T19:59:14.060Z,6.27
2023-01-17T20:01:42.475Z,6.26
2023-01-17T20:04:12.766Z,6.26
2023-01-17T20:06:41.146Z,6.26
2023-01-17T20:09:09.673Z,6.25
2023-01-17T20:11:38.060Z,6.25
2023-01-17T20:14:06.707Z,6.25
2023-01-17T20:16:37.504Z,6.26
2023-01-17T20:19:06.856Z,6.25
2023-01-17T20:21:37.062Z,6.26
2023-01-17T20:24:06.366Z,6.26
2023-01-17T20:26:36.616Z,6.27
2023-01-17T20:29:10.246Z,6.28
2023-01-17T20:31:40.272Z,6.29
2023-01-17T20:34:10.746Z,6.28
2023-01-17T20:36:42.762Z,6.31
2023-01-17T20:39:14.395Z,6.30
2023-01-17T20:41:44.916Z,6.31
2023-01-17T20:44:15.881Z,6.31
2023-01-17T20:46:45.489Z,6.33
2023-01-17T20:49:17.086Z,6.33
2023-01-17T20:51:48.007Z,6.35
2023-01-17T20:54:18.660Z,6.36
2023-01-17T20:56:47.911Z,6.36
2023-01-17T20:59:18.547Z,6.36
2023-01-17T21:01:47.451Z,6.36
2023-01-17T21:04:16.756Z,6.36
2023-01-17T21:06:47.571Z,6.35
2023-01-17T21:09:17.324Z,6.37
2023-01-17T21:11:45.817Z,6.38
2023-01-17T21:14:14.367Z,6.39
2023-01-17T21:16:42.930Z,6.39
2023-01-17T21:19:14.947Z,6.39
2023-01-17T21:21:43.244Z,6.40
2023-01-17T21:24:16.355Z,6.41
2023-01-17T21:26:45.693Z,6.39
2023-01-17T21:29:16.135Z,6.38
2023-01-17T21:31:45.260Z,6.37
2023-01-17T21:34:14.618Z,6.33
2023-01-17T21:36:44.001Z,6.33
2023-01-17T21:39:16.696Z,6.33
2023-01-17T21:41:50.663Z,6.32
2023-01-17T21:44:21.324Z,6.29
2023-01-17T21:46:54.253Z,6.25
2023-01-17T21:49:24.432Z,6.25
2023-01-17T21:52:10.033Z,6.23
2023-01-17T21:54:56.973Z,6.22
2023-01-17T21:57:43.072Z,6.20
2023-01-17T22:00:15.419Z,6.18
2023-01-17T22:02:45.192Z,6.17
2023-01-17T22:05:14.233Z,6.18
2023-01-17T22:08:03.401Z,6.17
2023-01-17T22:10:44.523Z,6.16
2023-01-17T22:13:14.940Z,6.13
2023-01-17T22:15:43.718Z,6.13
2023-01-17T22:18:12.580Z,6.13
2023-01-17T22:20:41.690Z,6.11
2023-01-17T22:23:11.814Z,6.09
2023-01-17T22:25:41.469Z,6.07
2023-01-17T22:28:09.771Z,6.06
2023-01-17T22:30:38.331Z,6.04
2023-01-17T22:33:06.630Z,6.03
2023-01-17T22:35:34.979Z,6.01
2023-01-17T22:38:03.253Z,6.01
2023-01-17T22:40:32.593Z,6.00
2023-01-17T22:43:02.196Z,5.99
2023-01-17T22:45:30.475Z,5.99
2023-01-17T22:47:58.829Z,5.98
2023-01-17T22:50:27.195Z,5.97
2023-01-17T22:52:55.863Z,5.98
2023-01-17T22:55:24.212Z,5.97
2023-01-17T22:57:52.478Z,5.95
2023-01-17T23:00:22.692Z,5.96
2023-01-17T23:02:50.946Z,5.95
2023-01-17T23:05:20.229Z,5.95
2023-01-17T23:07:51.319Z,5.94
2023-01-17T23:10:33.663Z,5.94
2023-01-17T23:13:01.900Z,5.93
2023-01-17T23:15:49.317Z,5.92
2023-01-17T23:18:34.937Z,5.89
2023-01-17T23:21:03.168Z,5.87
2023-01-17T23:23:33.159Z,5.86
2023-01-17T23:26:01.772Z,5.86
2023-01-17T23:28:29.098Z,5.85
2023-01-17T23:31:04.979Z,5.83
2023-01-17T23:33:33.524Z,5.83
2023-01-17T23:36:01.729Z,5.80
2023-01-17T23:38:29.693Z,5.79
2023-01-17T23:41:19.721Z,5.76
2023-01-17T23:43:52.680Z,5.70
2023-01-17T23:46:22.773Z,5.69
2023-01-17T23:48:51.183Z,5.69
2023-01-17T23:51:19.647Z,5.66
2023-01-17T23:53:48.035Z,5.65
2023-01-17T23:56:20.179Z,5.64
2023-01-17T23:58:48.520Z,5.64
